sensor_id;sensor_type;location;lat;lon;timestamp;pressure;altitude;pressure_sealevel;temperature;humidity
57644;BME280;43474;46.510;6.686;2023-01-24T00:01:12;97267.59;;;-4.31;100.00
57644;BME280;43474;46.510;6.686;2023-01-24T00:03:37;97273.47;;;-3.97;100.00
57644;BME280;43474;46.510;6.686;2023-01-24T00:06:03;97256.91;;;-4.05;100.00
57644;BME280;43474;46.510;6.686;2023-01-24T00:08:29;97272.88;;;-4.00;100.00
57644;BME280;43474;46.510;6.686;2023-01-24T00:10:59;97283.81;;;-3.97;100.00
57644;BME280;43474;46.510;6.686;2023-01-24T00:13:25;97263.72;;;-4.04;100.00
57644;BME280;43474;46.510;6.686;2023-01-24T00:15:51;97277.75;;;-4.07;100.00
57644;BME280;43474;46.510;6.686;2023-01-24T00:18:16;97271.91;;;-4.20;100.00
57644;BME280;43474;46.510;6.686;2023-01-24T00:20:42;97290.34;;;-4.13;100.00
57644;BME280;43474;46.510;6.686;2023-01-24T00:23:07;97306.94;;;-4.16;100.00
57644;BME280;43474;46.510;6.686;2023-01-24T00:25:33;97302.28;;;-4.22;100.00
57644;BME280;43474;46.510;6.686;2023-01-24T00:27:59;97316.56;;;-4.18;100.00
57644;BME280;43474;46.510;6.686;2023-01-24T00:30:24;97324.34;;;-4.18;100.00
57644;BME280;43474;46.510;6.686;2023-01-24T00:32:50;97309.22;;;-4.34;100.00
57644;BME280;43474;46.510;6.686;2023-01-24T00:35:15;97320.84;;;-4.17;100.00
57644;BME280;43474;46.510;6.686;2023-01-24T00:37:41;97307.75;;;-4.16;100.00
57644;BME280;43474;46.510;6.686;2023-01-24T00:40:08;97306.44;;;-4.10;100.00
57644;BME280;43474;46.510;6.686;2023-01-24T00:42:33;97294.81;;;-4.16;100.00
57644;BME280;43474;46.510;6.686;2023-01-24T00:44:59;97304.00;;;-4.11;100.00
57644;BME280;43474;46.510;6.686;2023-01-24T00:47:25;97315.56;;;-3.95;100.00
57644;BME280;43474;46.510;6.686;2023-01-24T00:49:50;97316.91;;;-3.79;100.00
57644;BME280;43474;46.510;6.686;2023-01-24T00:52:16;97322.91;;;-3.79;100.00
57644;BME280;43474;46.510;6.686;2023-01-24T00:54:41;97323.63;;;-3.77;100.00
57644;BME280;43474;46.510;6.686;2023-01-24T00:57:07;97335.47;;;-3.74;100.00
57644;BME280;43474;46.510;6.686;2023-01-24T00:59:32;97322.66;;;-3.76;100.00
57644;BME280;43474;46.510;6.686;2023-01-24T01:01:58;97335.38;;;-3.73;100.00
57644;BME280;43474;46.510;6.686;2023-01-24T01:04:24;97336.44;;;-3.75;100.00
57644;BME280;43474;46.510;6.686;2023-01-24T01:06:49;97334.53;;;-3.73;100.00
57644;BME280;43474;46.510;6.686;2023-01-24T01:09:15;97332.38;;;-3.89;100.00
57644;BME280;43474;46.510;6.686;2023-01-24T01:11:41;97340.63;;;-3.95;100.00
57644;BME280;43474;46.510;6.686;2023-01-24T01:14:08;97329.97;;;-4.02;100.00
57644;BME280;43474;46.510;6.686;2023-01-24T01:16:34;97346.66;;;-4.06;100.00
57644;BME280;43474;46.510;6.686;2023-01-24T01:19:04;97355.38;;;-4.07;100.00
57644;BME280;43474;46.510;6.686;2023-01-24T01:21:30;97347.28;;;-4.13;100.00
57644;BME280;43474;46.510;6.686;2023-01-24T01:23:56;97349.13;;;-4.04;100.00
57644;BME280;43474;46.510;6.686;2023-01-24T01:26:22;97378.59;;;-3.84;100.00
57644;BME280;43474;46.510;6.686;2023-01-24T01:28:48;97358.59;;;-3.82;100.00
57644;BME280;43474;46.510;6.686;2023-01-24T01:31:15;97368.47;;;-3.76;100.00
57644;BME280;43474;46.510;6.686;2023-01-24T01:33:40;97364.69;;;-3.72;100.00
57644;BME280;43474;46.510;6.686;2023-01-24T01:36:07;97369.97;;;-3.74;100.00
57644;BME280;43474;46.510;6.686;2023-01-24T01:38:32;97386.63;;;-3.55;100.00
57644;BME280;43474;46.510;6.686;2023-01-24T01:40:58;97366.63;;;-3.65;100.00
57644;BME280;43474;46.510;6.686;2023-01-24T01:43:28;97385.34;;;-3.61;100.00
57644;BME280;43474;46.510;6.686;2023-01-24T01:45:58;97360.31;;;-3.72;100.00
57644;BME280;43474;46.510;6.686;2023-01-24T01:48:37;97376.03;;;-3.52;100.00
57644;BME280;43474;46.510;6.686;2023-01-24T01:51:14;97377.66;;;-3.51;100.00
57644;BME280;43474;46.510;6.686;2023-01-24T01:53:52;97369.59;;;-3.69;100.00
57644;BME280;43474;46.510;6.686;2023-01-24T01:56:41;97374.84;;;-3.59;100.00
57644;BME280;43474;46.510;6.686;2023-01-24T01:59:16;97379.16;;;-3.49;100.00
57644;BME280;43474;46.510;6.686;2023-01-24T02:01:44;97382.56;;;-3.48;100.00
57644;BME280;43474;46.510;6.686;2023-01-24T02:04:15;97372.41;;;-3.61;100.00
57644;BME280;43474;46.510;6.686;2023-01-24T02:09:38;97394.69;;;-3.70;100.00
57644;BME280;43474;46.510;6.686;2023-01-24T02:12:10;97388.53;;;-3.69;100.00
57644;BME280;43474;46.510;6.686;2023-01-24T02:14:37;97381.53;;;-3.78;100.00
57644;BME280;43474;46.510;6.686;2023-01-24T02:17:22;97389.91;;;-3.85;100.00
57644;BME280;43474;46.510;6.686;2023-01-24T02:20:12;97404.38;;;-3.83;100.00
57644;BME280;43474;46.510;6.686;2023-01-24T02:22:44;97396.63;;;-3.94;100.00
57644;BME280;43474;46.510;6.686;2023-01-24T02:28:01;97387.41;;;-4.19;100.00
57644;BME280;43474;46.510;6.686;2023-01-24T02:30:28;97378.84;;;-4.31;100.00
57644;BME280;43474;46.510;6.686;2023-01-24T02:32:54;97383.81;;;-4.50;100.00
57644;BME280;43474;46.510;6.686;2023-01-24T02:35:28;97379.22;;;-4.58;100.00
57644;BME280;43474;46.510;6.686;2023-01-24T02:37:57;97394.88;;;-4.71;100.00
57644;BME280;43474;46.510;6.686;2023-01-24T02:40:24;97385.69;;;-4.86;100.00
57644;BME280;43474;46.510;6.686;2023-01-24T02:42:51;97385.00;;;-4.77;100.00
57644;BME280;43474;46.510;6.686;2023-01-24T02:45:26;97362.31;;;-5.07;100.00
57644;BME280;43474;46.510;6.686;2023-01-24T02:47:53;97396.97;;;-4.87;100.00
57644;BME280;43474;46.510;6.686;2023-01-24T02:50:22;97393.78;;;-4.79;100.00
57644;BME280;43474;46.510;6.686;2023-01-24T02:52:48;97399.78;;;-4.68;100.00
57644;BME280;43474;46.510;6.686;2023-01-24T02:55:33;97392.75;;;-4.54;100.00
57644;BME280;43474;46.510;6.686;2023-01-24T02:57:58;97391.09;;;-4.66;100.00
57644;BME280;43474;46.510;6.686;2023-01-24T03:00:41;97400.03;;;-4.59;100.00
57644;BME280;43474;46.510;6.686;2023-01-24T03:03:08;97385.13;;;-4.67;100.00
57644;BME280;43474;46.510;6.686;2023-01-24T03:05:34;97392.41;;;-4.61;100.00
57644;BME280;43474;46.510;6.686;2023-01-24T03:08:25;97391.94;;;-4.77;100.00
57644;BME280;43474;46.510;6.686;2023-01-24T03:10:52;97391.09;;;-4.78;100.00
57644;BME280;43474;46.510;6.686;2023-01-24T03:13:18;97387.94;;;-4.81;100.00
57644;BME280;43474;46.510;6.686;2023-01-24T03:16:03;97396.03;;;-4.75;100.00
57644;BME280;43474;46.510;6.686;2023-01-24T03:18:48;97403.31;;;-4.91;100.00
57644;BME280;43474;46.510;6.686;2023-01-24T03:21:32;97408.50;;;-4.80;100.00
57644;BME280;43474;46.510;6.686;2023-01-24T03:24:17;97398.34;;;-5.05;100.00
57644;BME280;43474;46.510;6.686;2023-01-24T03:27:02;97400.53;;;-5.23;100.00
57644;BME280;43474;46.510;6.686;2023-01-24T03:29:46;97406.53;;;-5.23;100.00
57644;BME280;43474;46.510;6.686;2023-01-24T03:32:31;97405.63;;;-5.10;100.00
57644;BME280;43474;46.510;6.686;2023-01-24T03:35:15;97406.31;;;-5.20;100.00
57644;BME280;43474;46.510;6.686;2023-01-24T03:37:40;97406.53;;;-5.23;100.00
57644;BME280;43474;46.510;6.686;2023-01-24T03:40:24;97402.91;;;-5.09;100.00
57644;BME280;43474;46.510;6.686;2023-01-24T03:42:50;97390.34;;;-5.13;100.00
57644;BME280;43474;46.510;6.686;2023-01-24T03:47:46;97410.06;;;-5.24;100.00
57644;BME280;43474;46.510;6.686;2023-01-24T03:50:28;97427.47;;;-5.14;100.00
57644;BME280;43474;46.510;6.686;2023-01-24T03:53:13;97410.53;;;-5.30;100.00
57644;BME280;43474;46.510;6.686;2023-01-24T03:55:39;97402.63;;;-5.39;100.00
57644;BME280;43474;46.510;6.686;2023-01-24T03:58:06;97424.25;;;-5.29;100.00
57644;BME280;43474;46.510;6.686;2023-01-24T04:00:32;97415.81;;;-5.20;100.00
57644;BME280;43474;46.510;6.686;2023-01-24T04:02:58;97416.38;;;-5.28;100.00
57644;BME280;43474;46.510;6.686;2023-01-24T04:05:23;97421.81;;;-5.20;100.00
57644;BME280;43474;46.510;6.686;2023-01-24T04:07:49;97427.19;;;-5.23;100.00
57644;BME280;43474;46.510;6.686;2023-01-24T04:10:15;97415.19;;;-5.35;100.00
57644;BME280;43474;46.510;6.686;2023-01-24T04:12:42;97416.16;;;-5.36;100.00
57644;BME280;43474;46.510;6.686;2023-01-24T04:15:08;97412.88;;;-5.27;100.00
57644;BME280;43474;46.510;6.686;2023-01-24T04:17:38;97420.50;;;-5.36;100.00
57644;BME280;43474;46.510;6.686;2023-01-24T04:20:04;97419.34;;;-5.21;100.00
57644;BME280;43474;46.510;6.686;2023-01-24T04:22:30;97430.56;;;-5.33;100.00
57644;BME280;43474;46.510;6.686;2023-01-24T04:24:56;97424.56;;;-5.45;100.00
57644;BME280;43474;46.510;6.686;2023-01-24T04:27:21;97423.41;;;-5.41;100.00
57644;BME280;43474;46.510;6.686;2023-01-24T04:29:47;97401.88;;;-5.53;100.00
57644;BME280;43474;46.510;6.686;2023-01-24T04:32:12;97402.47;;;-5.49;100.00
57644;BME280;43474;46.510;6.686;2023-01-24T04:34:39;97426.84;;;-5.29;100.00
57644;BME280;43474;46.510;6.686;2023-01-24T04:37:05;97427.91;;;-5.32;100.00
57644;BME280;43474;46.510;6.686;2023-01-24T04:39:31;97419.22;;;-5.31;100.00
57644;BME280;43474;46.510;6.686;2023-01-24T04:41:56;97428.16;;;-5.12;100.00
57644;BME280;43474;46.510;6.686;2023-01-24T04:44:22;97411.13;;;-5.26;100.00
57644;BME280;43474;46.510;6.686;2023-01-24T04:46:47;97426.97;;;-5.20;100.00
57644;BME280;43474;46.510;6.686;2023-01-24T04:49:13;97435.19;;;-5.26;100.00
57644;BME280;43474;46.510;6.686;2023-01-24T04:51:39;97421.59;;;-5.16;100.00
57644;BME280;43474;46.510;6.686;2023-01-24T04:54:09;97436.63;;;-5.10;100.00
57644;BME280;43474;46.510;6.686;2023-01-24T04:56:35;97420.88;;;-5.07;100.00
57644;BME280;43474;46.510;6.686;2023-01-24T04:59:01;97447.25;;;-4.91;100.00
57644;BME280;43474;46.510;6.686;2023-01-24T05:01:27;97435.84;;;-4.88;100.00
57644;BME280;43474;46.510;6.686;2023-01-24T05:03:52;97439.25;;;-4.88;100.00
57644;BME280;43474;46.510;6.686;2023-01-24T05:06:25;97444.28;;;-4.98;100.00
57644;BME280;43474;46.510;6.686;2023-01-24T05:08:52;97445.09;;;-5.08;100.00
57644;BME280;43474;46.510;6.686;2023-01-24T05:11:18;97442.28;;;-5.16;100.00
57644;BME280;43474;46.510;6.686;2023-01-24T05:13:43;97452.47;;;-5.26;100.00
57644;BME280;43474;46.510;6.686;2023-01-24T05:16:09;97458.00;;;-5.08;100.00
57644;BME280;43474;46.510;6.686;2023-01-24T05:18:35;97459.66;;;-5.07;100.00
57644;BME280;43474;46.510;6.686;2023-01-24T05:21:15;97471.34;;;-4.90;100.00
57644;BME280;43474;46.510;6.686;2023-01-24T05:23:41;97451.22;;;-4.98;100.00
57644;BME280;43474;46.510;6.686;2023-01-24T05:26:07;97466.31;;;-4.81;100.00
57644;BME280;43474;46.510;6.686;2023-01-24T05:28:33;97461.13;;;-4.92;100.00
57644;BME280;43474;46.510;6.686;2023-01-24T05:31:00;97454.38;;;-5.06;100.00
57644;BME280;43474;46.510;6.686;2023-01-24T05:33:26;97445.00;;;-4.96;100.00
57644;BME280;43474;46.510;6.686;2023-01-24T05:38:24;97460.03;;;-5.01;100.00
57644;BME280;43474;46.510;6.686;2023-01-24T05:40:49;97468.13;;;-5.05;100.00
57644;BME280;43474;46.510;6.686;2023-01-24T05:43:15;97466.81;;;-5.11;100.00
57644;BME280;43474;46.510;6.686;2023-01-24T05:45:40;97480.75;;;-5.25;100.00
57644;BME280;43474;46.510;6.686;2023-01-24T05:48:06;97464.41;;;-5.36;100.00
57644;BME280;43474;46.510;6.686;2023-01-24T05:50:31;97470.75;;;-5.29;100.00
57644;BME280;43474;46.510;6.686;2023-01-24T05:52:57;97470.97;;;-5.32;100.00
57644;BME280;43474;46.510;6.686;2023-01-24T05:55:22;97474.63;;;-5.24;100.00
57644;BME280;43474;46.510;6.686;2023-01-24T05:57:48;97484.44;;;-5.16;100.00
57644;BME280;43474;46.510;6.686;2023-01-24T06:00:14;97475.03;;;-5.17;100.00
57644;BME280;43474;46.510;6.686;2023-01-24T06:02:40;97482.78;;;-5.17;100.00
57644;BME280;43474;46.510;6.686;2023-01-24T06:05:06;97485.41;;;-5.06;100.00
57644;BME280;43474;46.510;6.686;2023-01-24T06:07:32;97479.84;;;-5.12;100.00
57644;BME280;43474;46.510;6.686;2023-01-24T06:09:57;97482.53;;;-5.14;100.00
57644;BME280;43474;46.510;6.686;2023-01-24T06:12:23;97505.56;;;-4.87;100.00
57644;BME280;43474;46.510;6.686;2023-01-24T06:14:48;97501.56;;;-4.80;100.00
57644;BME280;43474;46.510;6.686;2023-01-24T06:17:14;97496.03;;;-4.86;100.00
57644;BME280;43474;46.510;6.686;2023-01-24T06:19:40;97506.19;;;-4.50;100.00
57644;BME280;43474;46.510;6.686;2023-01-24T06:22:21;97509.13;;;-4.43;100.00
57644;BME280;43474;46.510;6.686;2023-01-24T06:24:49;97503.50;;;-4.37;100.00
57644;BME280;43474;46.510;6.686;2023-01-24T06:27:15;97499.97;;;-4.25;100.00
57644;BME280;43474;46.510;6.686;2023-01-24T06:29:41;97507.84;;;-4.04;100.00
57644;BME280;43474;46.510;6.686;2023-01-24T06:37:51;97507.94;;;-3.72;100.00
57644;BME280;43474;46.510;6.686;2023-01-24T06:40:22;97518.59;;;-3.54;100.00
57644;BME280;43474;46.510;6.686;2023-01-24T06:42:49;97524.94;;;-3.35;100.00
57644;BME280;43474;46.510;6.686;2023-01-24T06:45:15;97532.22;;;-3.29;100.00
57644;BME280;43474;46.510;6.686;2023-01-24T06:47:41;97519.41;;;-3.42;100.00
57644;BME280;43474;46.510;6.686;2023-01-24T06:50:19;97518.78;;;-3.34;100.00
57644;BME280;43474;46.510;6.686;2023-01-24T06:52:46;97524.34;;;-3.28;100.00
57644;BME280;43474;46.510;6.686;2023-01-24T06:55:12;97528.19;;;-3.22;100.00
57644;BME280;43474;46.510;6.686;2023-01-24T06:57:38;97523.94;;;-3.23;100.00
57644;BME280;43474;46.510;6.686;2023-01-24T07:00:04;97532.75;;;-3.15;100.00
57644;BME280;43474;46.510;6.686;2023-01-24T07:02:30;97522.66;;;-3.29;100.00
57644;BME280;43474;46.510;6.686;2023-01-24T07:04:55;97528.28;;;-3.24;100.00
57644;BME280;43474;46.510;6.686;2023-01-24T07:07:21;97542.88;;;-3.12;100.00
57644;BME280;43474;46.510;6.686;2023-01-24T07:09:47;97554.66;;;-3.07;100.00
57644;BME280;43474;46.510;6.686;2023-01-24T07:12:12;97553.75;;;-3.18;100.00
57644;BME280;43474;46.510;6.686;2023-01-24T07:14:38;97570.69;;;-3.14;100.00
57644;BME280;43474;46.510;6.686;2023-01-24T07:17:04;97559.13;;;-3.09;100.00
57644;BME280;43474;46.510;6.686;2023-01-24T07:19:29;97572.75;;;-2.96;100.00
57644;BME280;43474;46.510;6.686;2023-01-24T07:21:55;97565.94;;;-2.97;100.00
57644;BME280;43474;46.510;6.686;2023-01-24T07:24:25;97550.56;;;-3.21;100.00
57644;BME280;43474;46.510;6.686;2023-01-24T07:26:51;97571.78;;;-3.16;100.00
57644;BME280;43474;46.510;6.686;2023-01-24T07:29:18;97573.00;;;-3.31;100.00
57644;BME280;43474;46.510;6.686;2023-01-24T07:31:44;97580.63;;;-3.30;100.00
57644;BME280;43474;46.510;6.686;2023-01-24T07:34:09;97577.94;;;-3.40;100.00
57644;BME280;43474;46.510;6.686;2023-01-24T07:36:35;97592.44;;;-3.48;100.00
57644;BME280;43474;46.510;6.686;2023-01-24T07:39:01;97596.22;;;-3.52;100.00
57644;BME280;43474;46.510;6.686;2023-01-24T07:41:26;97596.06;;;-3.17;100.00
57644;BME280;43474;46.510;6.686;2023-01-24T07:43:52;97578.75;;;-2.64;100.00
57644;BME280;43474;46.510;6.686;2023-01-24T07:46:19;97587.00;;;-2.17;100.00
57644;BME280;43474;46.510;6.686;2023-01-24T07:48:44;97574.88;;;-1.76;100.00
57644;BME280;43474;46.510;6.686;2023-01-24T07:51:10;97597.59;;;-1.38;100.00
57644;BME280;43474;46.510;6.686;2023-01-24T07:53:36;97602.66;;;-1.26;100.00
57644;BME280;43474;46.510;6.686;2023-01-24T07:56:02;97580.50;;;-1.21;100.00
57644;BME280;43474;46.510;6.686;2023-01-24T07:58:29;97626.75;;;-0.74;100.00
57644;BME280;43474;46.510;6.686;2023-01-24T08:00:54;97611.41;;;-0.58;100.00
57644;BME280;43474;46.510;6.686;2023-01-24T08:03:20;97610.00;;;-0.33;100.00
57644;BME280;43474;46.510;6.686;2023-01-24T08:05:46;97622.28;;;-0.06;100.00
57644;BME280;43474;46.510;6.686;2023-01-24T08:08:12;97616.63;;;0.18;100.00
57644;BME280;43474;46.510;6.686;2023-01-24T08:10:37;97605.28;;;0.46;100.00
57644;BME280;43474;46.510;6.686;2023-01-24T08:13:03;97612.44;;;0.72;100.00
57644;BME280;43474;46.510;6.686;2023-01-24T08:15:29;97608.38;;;0.87;100.00
57644;BME280;43474;46.510;6.686;2023-01-24T08:17:54;97618.78;;;1.33;100.00
57644;BME280;43474;46.510;6.686;2023-01-24T08:20:20;97611.19;;;1.57;100.00
57644;BME280;43474;46.510;6.686;2023-01-24T08:22:46;97622.03;;;1.88;100.00
57644;BME280;43474;46.510;6.686;2023-01-24T08:25:12;97609.69;;;1.98;100.00
57644;BME280;43474;46.510;6.686;2023-01-24T08:27:41;97620.31;;;2.23;100.00
57644;BME280;43474;46.510;6.686;2023-01-24T08:30:08;97611.06;;;2.37;100.00
57644;BME280;43474;46.510;6.686;2023-01-24T08:32:36;97622.94;;;2.57;100.00
57644;BME280;43474;46.510;6.686;2023-01-24T08:35:02;97633.09;;;2.94;100.00
57644;BME280;43474;46.510;6.686;2023-01-24T08:37:28;97644.47;;;3.19;97.38
57644;BME280;43474;46.510;6.686;2023-01-24T08:39:53;97644.47;;;3.19;100.00
57644;BME280;43474;46.510;6.686;2023-01-24T08:42:22;97649.03;;;3.09;96.10
57644;BME280;43474;46.510;6.686;2023-01-24T08:44:48;97634.63;;;3.21;97.77
57644;BME280;43474;46.510;6.686;2023-01-24T08:47:13;97634.72;;;3.62;97.87
57644;BME280;43474;46.510;6.686;2023-01-24T08:49:39;97641.44;;;3.89;94.56
57644;BME280;43474;46.510;6.686;2023-01-24T08:52:04;97657.66;;;4.01;93.94
57644;BME280;43474;46.510;6.686;2023-01-24T08:54:31;97646.84;;;3.96;92.80
57644;BME280;43474;46.510;6.686;2023-01-24T08:57:02;97657.81;;;4.07;89.22
57644;BME280;43474;46.510;6.686;2023-01-24T08:59:28;97658.97;;;3.97;88.39
57644;BME280;43474;46.510;6.686;2023-01-24T09:01:54;97638.13;;;4.36;91.54
57644;BME280;43474;46.510;6.686;2023-01-24T09:04:20;97665.63;;;4.73;86.19
57644;BME280;43474;46.510;6.686;2023-01-24T09:06:45;97659.75;;;4.54;86.12
57644;BME280;43474;46.510;6.686;2023-01-24T09:09:11;97654.19;;;4.49;85.06
57644;BME280;43474;46.510;6.686;2023-01-24T09:11:36;97649.88;;;4.56;85.32
57644;BME280;43474;46.510;6.686;2023-01-24T09:14:02;97652.09;;;4.84;85.65
57644;BME280;43474;46.510;6.686;2023-01-24T09:16:27;97646.59;;;4.62;82.96
57644;BME280;43474;46.510;6.686;2023-01-24T09:18:54;97656.13;;;4.63;82.15
57644;BME280;43474;46.510;6.686;2023-01-24T09:21:19;97658.75;;;4.55;80.25
57644;BME280;43474;46.510;6.686;2023-01-24T09:23:46;97660.41;;;4.48;83.11
57644;BME280;43474;46.510;6.686;2023-01-24T09:26:11;97672.59;;;3.84;84.37
57644;BME280;43474;46.510;6.686;2023-01-24T09:28:37;97643.88;;;3.82;84.76
57644;BME280;43474;46.510;6.686;2023-01-24T09:31:07;97658.94;;;4.37;87.11
57644;BME280;43474;46.510;6.686;2023-01-24T09:33:33;97668.44;;;4.55;83.50
57644;BME280;43474;46.510;6.686;2023-01-24T09:36:00;97643.25;;;3.88;84.23
57644;BME280;43474;46.510;6.686;2023-01-24T09:38:28;97669.47;;;4.13;86.77
57644;BME280;43474;46.510;6.686;2023-01-24T09:41:20;97660.28;;;4.25;84.14
57644;BME280;43474;46.510;6.686;2023-01-24T09:43:59;97672.41;;;4.26;84.00
57644;BME280;43474;46.510;6.686;2023-01-24T09:46:32;97658.16;;;4.29;84.98
57644;BME280;43474;46.510;6.686;2023-01-24T09:49:15;97669.47;;;4.21;83.67
57644;BME280;43474;46.510;6.686;2023-01-24T09:51:49;97641.09;;;3.92;84.83
57644;BME280;43474;46.510;6.686;2023-01-24T09:56:55;97670.28;;;4.05;83.11
57644;BME280;43474;46.510;6.686;2023-01-24T09:59:25;97683.22;;;4.07;86.87
57644;BME280;43474;46.510;6.686;2023-01-24T10:01:52;97670.78;;;3.76;84.20
57644;BME280;43474;46.510;6.686;2023-01-24T10:04:31;97680.28;;;4.10;86.14
57644;BME280;43474;46.510;6.686;2023-01-24T10:09:51;97681.78;;;4.04;85.73
57644;BME280;43474;46.510;6.686;2023-01-24T10:18:14;97660.94;;;3.95;83.93
57644;BME280;43474;46.510;6.686;2023-01-24T10:23:38;97673.22;;;4.27;85.15
57644;BME280;43474;46.510;6.686;2023-01-24T10:26:17;97683.13;;;4.88;81.31
57644;BME280;43474;46.510;6.686;2023-01-24T10:28:56;97677.69;;;5.29;79.30
57644;BME280;43474;46.510;6.686;2023-01-24T10:31:35;97669.94;;;4.49;81.20
57644;BME280;43474;46.510;6.686;2023-01-24T10:34:15;97679.47;;;4.34;84.26
57644;BME280;43474;46.510;6.686;2023-01-24T10:39:41;97662.09;;;3.84;85.37
57644;BME280;43474;46.510;6.686;2023-01-24T10:42:27;97674.34;;;4.32;87.07
57644;BME280;43474;46.510;6.686;2023-01-24T10:44:55;97657.94;;;4.47;82.15
57644;BME280;43474;46.510;6.686;2023-01-24T10:49:57;97648.50;;;5.16;80.57
57644;BME280;43474;46.510;6.686;2023-01-24T10:52:24;97665.31;;;4.51;83.90
57644;BME280;43474;46.510;6.686;2023-01-24T10:54:56;97674.06;;;4.11;84.41
57644;BME280;43474;46.510;6.686;2023-01-24T10:57:42;97667.00;;;3.71;86.50
57644;BME280;43474;46.510;6.686;2023-01-24T11:02:40;97673.31;;;2.85;88.72
57644;BME280;43474;46.510;6.686;2023-01-24T11:05:13;97674.09;;;3.28;90.15
57644;BME280;43474;46.510;6.686;2023-01-24T11:07:45;97674.53;;;4.06;88.74
57644;BME280;43474;46.510;6.686;2023-01-24T11:10:30;97646.16;;;4.43;86.03
57644;BME280;43474;46.510;6.686;2023-01-24T11:13:00;97637.75;;;4.55;85.38
57644;BME280;43474;46.510;6.686;2023-01-24T11:15:29;97672.81;;;4.79;85.85
57644;BME280;43474;46.510;6.686;2023-01-24T11:18:18;97656.97;;;4.95;80.07
57644;BME280;43474;46.510;6.686;2023-01-24T11:20:45;97650.00;;;4.71;79.77
57644;BME280;43474;46.510;6.686;2023-01-24T11:23:16;97644.31;;;4.59;81.87
57644;BME280;43474;46.510;6.686;2023-01-24T11:25:52;97658.97;;;4.05;84.66
57644;BME280;43474;46.510;6.686;2023-01-24T11:28:26;97663.19;;;3.41;85.38
57644;BME280;43474;46.510;6.686;2023-01-24T11:30:54;97656.53;;;3.12;87.04
57644;BME280;43474;46.510;6.686;2023-01-24T11:33:37;97641.91;;;3.52;86.42
57644;BME280;43474;46.510;6.686;2023-01-24T11:36:28;97668.50;;;3.89;87.87
57644;BME280;43474;46.510;6.686;2023-01-24T11:41:53;97637.34;;;3.54;87.14
57644;BME280;43474;46.510;6.686;2023-01-24T11:44:35;97640.44;;;3.57;87.36
57644;BME280;43474;46.510;6.686;2023-01-24T11:47:14;97656.84;;;4.00;86.39
57644;BME280;43474;46.510;6.686;2023-01-24T11:54:57;97660.22;;;3.35;90.18
57644;BME280;43474;46.510;6.686;2023-01-24T12:03:31;97654.75;;;3.13;92.50
57644;BME280;43474;46.510;6.686;2023-01-24T12:09:01;97659.91;;;2.54;93.90
57644;BME280;43474;46.510;6.686;2023-01-24T12:11:31;97642.94;;;2.66;95.58
57644;BME280;43474;46.510;6.686;2023-01-24T12:14:19;97641.19;;;2.75;95.73
57644;BME280;43474;46.510;6.686;2023-01-24T12:16:52;97653.53;;;2.56;96.27
57644;BME280;43474;46.510;6.686;2023-01-24T12:22:14;97653.31;;;2.76;96.55
57644;BME280;43474;46.510;6.686;2023-01-24T12:24:45;97645.38;;;2.59;97.71
57644;BME280;43474;46.510;6.686;2023-01-24T12:27:18;97655.84;;;2.33;99.78
57644;BME280;43474;46.510;6.686;2023-01-24T12:29:58;97658.81;;;2.39;99.27
57644;BME280;43474;46.510;6.686;2023-01-24T12:32:40;97651.56;;;2.24;99.43
57644;BME280;43474;46.510;6.686;2023-01-24T12:35:37;97654.00;;;2.26;100.00
57644;BME280;43474;46.510;6.686;2023-01-24T12:38:18;97654.72;;;2.36;100.00
57644;BME280;43474;46.510;6.686;2023-01-24T12:40:50;97647.34;;;2.31;100.00
57644;BME280;43474;46.510;6.686;2023-01-24T12:46:10;97636.44;;;2.70;100.00
57644;BME280;43474;46.510;6.686;2023-01-24T12:48:44;97643.66;;;3.19;99.86
57644;BME280;43474;46.510;6.686;2023-01-24T12:56:21;97649.38;;;3.22;97.83
57644;BME280;43474;46.510;6.686;2023-01-24T12:58:49;97639.50;;;3.08;95.53
57644;BME280;43474;46.510;6.686;2023-01-24T13:09:49;97646.66;;;3.40;95.89
57644;BME280;43474;46.510;6.686;2023-01-24T13:12:24;97642.72;;;3.44;94.47
57644;BME280;43474;46.510;6.686;2023-01-24T13:15:04;97639.13;;;3.53;93.46
57644;BME280;43474;46.510;6.686;2023-01-24T13:20:27;97642.44;;;4.04;92.87
57644;BME280;43474;46.510;6.686;2023-01-24T13:28:36;97648.97;;;4.17;90.24
57644;BME280;43474;46.510;6.686;2023-01-24T13:31:21;97660.28;;;3.93;91.24
57644;BME280;43474;46.510;6.686;2023-01-24T13:33:58;97660.59;;;3.98;92.03
57644;BME280;43474;46.510;6.686;2023-01-24T13:36:47;97653.88;;;3.71;91.49
57644;BME280;43474;46.510;6.686;2023-01-24T13:42:30;97652.91;;;3.63;92.55
57644;BME280;43474;46.510;6.686;2023-01-24T13:44:49;97648.94;;;3.35;93.53
57644;BME280;43474;46.510;6.686;2023-01-24T13:49:44;97669.16;;;3.08;95.67
57644;BME280;43474;46.510;6.686;2023-01-24T13:57:48;97662.34;;;3.24;94.94
57644;BME280;43474;46.510;6.686;2023-01-24T14:00:18;97679.34;;;3.20;95.82
57644;BME280;43474;46.510;6.686;2023-01-24T14:10:45;97685.97;;;2.64;99.59
57644;BME280;43474;46.510;6.686;2023-01-24T14:14:21;97688.44;;;2.39;100.00
57644;BME280;43474;46.510;6.686;2023-01-24T14:19:04;97666.88;;;2.19;100.00
57644;BME280;43474;46.510;6.686;2023-01-24T14:21:54;97693.56;;;2.05;100.00
57644;BME280;43474;46.510;6.686;2023-01-24T14:24:35;97680.13;;;2.00;100.00
57644;BME280;43474;46.510;6.686;2023-01-24T14:29:49;97678.78;;;1.78;100.00
57644;BME280;43474;46.510;6.686;2023-01-24T14:32:40;97701.75;;;1.84;100.00
57644;BME280;43474;46.510;6.686;2023-01-24T14:35:20;97685.16;;;1.75;100.00
57644;BME280;43474;46.510;6.686;2023-01-24T14:37:47;97707.69;;;1.76;100.00
57644;BME280;43474;46.510;6.686;2023-01-24T14:40:27;97697.25;;;1.94;100.00
57644;BME280;43474;46.510;6.686;2023-01-24T14:43:03;97698.34;;;1.92;100.00
57644;BME280;43474;46.510;6.686;2023-01-24T14:45:32;97712.31;;;2.00;100.00
57644;BME280;43474;46.510;6.686;2023-01-24T14:47:58;97698.56;;;1.98;100.00
57644;BME280;43474;46.510;6.686;2023-01-24T14:50:26;97715.31;;;2.05;100.00
57644;BME280;43474;46.510;6.686;2023-01-24T14:52:52;97718.13;;;2.12;100.00
57644;BME280;43474;46.510;6.686;2023-01-24T14:55:32;97714.63;;;2.03;100.00
57644;BME280;43474;46.510;6.686;2023-01-24T14:58:22;97707.63;;;1.86;100.00
57644;BME280;43474;46.510;6.686;2023-01-24T15:00:51;97715.19;;;1.89;100.00